sensor_id;sensor_type;location;lat;lon;timestamp;temperature;humidity
6536;DHT22;34330;52.08032700;5.40923460;2023-02-28T00:01:25;5.10;72.60
6536;DHT22;34330;52.08032700;5.40923460;2023-02-28T00:03:53;6.00;73.40
6536;DHT22;34330;52.08032700;5.40923460;2023-02-28T00:06:22;5.00;72.50
6536;DHT22;34330;52.08032700;5.40923460;2023-02-28T00:08:50;5.00;72.50
6536;DHT22;34330;52.08032700;5.40923460;2023-02-28T00:11:18;5.00;72.80
6536;DHT22;34330;52.08032700;5.40923460;2023-02-28T00:13:47;5.00;72.90
6536;DHT22;34330;52.08032700;5.40923460;2023-02-28T00:16:19;5.50;73.70
6536;DHT22;34330;52.08032700;5.40923460;2023-02-28T00:18:48;5.00;73.50
6536;DHT22;34330;52.08032700;5.40923460;2023-02-28T00:21:17;5.00;73.50
6536;DHT22;34330;52.08032700;5.40923460;2023-02-28T00:23:46;5.10;73.60
6536;DHT22;34330;52.08032700;5.40923460;2023-02-28T00:26:14;5.00;73.60
6536;DHT22;34330;52.08032700;5.40923460;2023-02-28T00:28:42;5.00;73.90
6536;DHT22;34330;52.08032700;5.40923460;2023-02-28T00:31:10;5.00;73.80
6536;DHT22;34330;52.08032700;5.40923460;2023-02-28T00:33:39;5.20;74.30
6536;DHT22;34330;52.08032700;5.40923460;2023-02-28T00:36:14;5.00;74.30
6536;DHT22;34330;52.08032700;5.40923460;2023-02-28T00:38:45;5.10;74.40
6536;DHT22;34330;52.08032700;5.40923460;2023-02-28T00:41:12;6.20;75.30
6536;DHT22;34330;52.08032700;5.40923460;2023-02-28T00:43:40;5.10;74.40
6536;DHT22;34330;52.08032700;5.40923460;2023-02-28T00:46:09;5.10;74.70
6536;DHT22;34330;52.08032700;5.40923460;2023-02-28T00:48:38;5.10;74.60
6536;DHT22;34330;52.08032700;5.40923460;2023-02-28T00:51:06;5.20;74.80
6536;DHT22;34330;52.08032700;5.40923460;2023-02-28T00:53:34;5.20;74.90
6536;DHT22;34330;52.08032700;5.40923460;2023-02-28T00:56:02;5.20;75.00
6536;DHT22;34330;52.08032700;5.40923460;2023-02-28T00:58:30;5.20;75.10
6536;DHT22;34330;52.08032700;5.40923460;2023-02-28T01:00:58;5.20;75.10
6536;DHT22;34330;52.08032700;5.40923460;2023-02-28T01:03:26;5.30;75.30
6536;DHT22;34330;52.08032700;5.40923460;2023-02-28T01:05:55;5.30;75.20
6536;DHT22;34330;52.08032700;5.40923460;2023-02-28T01:08:23;5.30;75.40
6536;DHT22;34330;52.08032700;5.40923460;2023-02-28T01:10:52;5.30;75.50
6536;DHT22;34330;52.08032700;5.40923460;2023-02-28T01:13:21;5.30;75.50
6536;DHT22;34330;52.08032700;5.40923460;2023-02-28T01:15:51;5.40;75.70
6536;DHT22;34330;52.08032700;5.40923460;2023-02-28T01:18:20;5.40;75.90
6536;DHT22;34330;52.08032700;5.40923460;2023-02-28T01:20:48;5.40;75.70
6536;DHT22;34330;52.08032700;5.40923460;2023-02-28T01:23:19;5.40;75.80
6536;DHT22;34330;52.08032700;5.40923460;2023-02-28T01:25:48;5.50;76.00
6536;DHT22;34330;52.08032700;5.40923460;2023-02-28T01:28:16;5.50;76.10
6536;DHT22;34330;52.08032700;5.40923460;2023-02-28T01:30:48;5.50;76.10
6536;DHT22;34330;52.08032700;5.40923460;2023-02-28T01:33:16;5.50;76.50
6536;DHT22;34330;52.08032700;5.40923460;2023-02-28T01:35:44;5.60;76.50
6536;DHT22;34330;52.08032700;5.40923460;2023-02-28T01:38:12;5.60;76.20
6536;DHT22;34330;52.08032700;5.40923460;2023-02-28T01:40:50;5.60;76.50
6536;DHT22;34330;52.08032700;5.40923460;2023-02-28T01:43:21;5.60;76.40
6536;DHT22;34330;52.08032700;5.40923460;2023-02-28T01:45:51;5.70;76.90
6536;DHT22;34330;52.08032700;5.40923460;2023-02-28T01:48:20;5.70;76.90
6536;DHT22;34330;52.08032700;5.40923460;2023-02-28T01:50:49;5.70;76.90
6536;DHT22;34330;52.08032700;5.40923460;2023-02-28T01:53:19;5.70;76.80
6536;DHT22;34330;52.08032700;5.40923460;2023-02-28T01:55:51;5.80;77.20
6536;DHT22;34330;52.08032700;5.40923460;2023-02-28T01:58:20;5.80;77.20
6536;DHT22;34330;52.08032700;5.40923460;2023-02-28T02:00:49;5.80;77.10
6536;DHT22;34330;52.08032700;5.40923460;2023-02-28T02:03:18;5.80;77.10
6536;DHT22;34330;52.08032700;5.40923460;2023-02-28T02:05:47;5.90;77.30
6536;DHT22;34330;52.08032700;5.40923460;2023-02-28T02:08:18;5.90;77.20
6536;DHT22;34330;52.08032700;5.40923460;2023-02-28T02:10:50;5.90;77.30
6536;DHT22;34330;52.08032700;5.40923460;2023-02-28T02:13:31;5.90;77.20
6536;DHT22;34330;52.08032700;5.40923460;2023-02-28T02:16:11;5.90;77.40
6536;DHT22;34330;52.08032700;5.40923460;2023-02-28T02:18:47;6.00;77.40
6536;DHT22;34330;52.08032700;5.40923460;2023-02-28T02:24:57;6.00;77.40
6536;DHT22;34330;52.08032700;5.40923460;2023-02-28T02:27:38;6.00;77.40
6536;DHT22;34330;52.08032700;5.40923460;2023-02-28T02:30:44;6.00;77.20
6536;DHT22;34330;52.08032700;5.40923460;2023-02-28T02:36:14;6.10;77.30
6536;DHT22;34330;52.08032700;5.40923460;2023-02-28T02:38:49;6.10;77.20
6536;DHT22;34330;52.08032700;5.40923460;2023-02-28T02:41:23;6.50;77.50
6536;DHT22;34330;52.08032700;5.40923460;2023-02-28T02:43:56;6.10;77.30
6536;DHT22;34330;52.08032700;5.40923460;2023-02-28T02:46:28;6.10;77.30
6536;DHT22;34330;52.08032700;5.40923460;2023-02-28T02:48:59;6.10;77.40
6536;DHT22;34330;52.08032700;5.40923460;2023-02-28T02:51:31;6.10;77.40
6536;DHT22;34330;52.08032700;5.40923460;2023-02-28T02:54:08;6.20;77.30
6536;DHT22;34330;52.08032700;5.40923460;2023-02-28T02:56:39;6.20;77.60
6536;DHT22;34330;52.08032700;5.40923460;2023-02-28T02:59:13;6.20;77.50
6536;DHT22;34330;52.08032700;5.40923460;2023-02-28T03:01:41;6.20;77.30
6536;DHT22;34330;52.08032700;5.40923460;2023-02-28T03:04:13;6.20;77.30
6536;DHT22;34330;52.08032700;5.40923460;2023-02-28T03:06:45;6.20;77.50
6536;DHT22;34330;52.08032700;5.40923460;2023-02-28T03:09:13;6.20;77.40
6536;DHT22;34330;52.08032700;5.40923460;2023-02-28T03:11:42;6.30;77.50
6536;DHT22;34330;52.08032700;5.40923460;2023-02-28T03:14:25;6.30;77.30
6536;DHT22;34330;52.08032700;5.40923460;2023-02-28T03:17:23;6.30;77.90
6536;DHT22;34330;52.08032700;5.40923460;2023-02-28T03:20:00;6.30;77.90
6536;DHT22;34330;52.08032700;5.40923460;2023-02-28T03:22:45;6.30;77.70
6536;DHT22;34330;52.08032700;5.40923460;2023-02-28T03:25:25;6.30;77.90
6536;DHT22;34330;52.08032700;5.40923460;2023-02-28T03:28:00;6.30;77.70
6536;DHT22;34330;52.08032700;5.40923460;2023-02-28T03:30:36;6.30;77.80
6536;DHT22;34330;52.08032700;5.40923460;2023-02-28T03:33:10;6.40;77.90
6536;DHT22;34330;52.08032700;5.40923460;2023-02-28T03:35:41;6.50;77.90
6536;DHT22;34330;52.08032700;5.40923460;2023-02-28T03:38:17;6.30;77.80
6536;DHT22;34330;52.08032700;5.40923460;2023-02-28T03:40:49;6.40;77.90
6536;DHT22;34330;52.08032700;5.40923460;2023-02-28T03:43:22;6.40;77.90
6536;DHT22;34330;52.08032700;5.40923460;2023-02-28T03:46:08;6.40;78.00
6536;DHT22;34330;52.08032700;5.40923460;2023-02-28T03:48:40;6.40;78.20
6536;DHT22;34330;52.08032700;5.40923460;2023-02-28T03:51:14;6.40;78.10
6536;DHT22;34330;52.08032700;5.40923460;2023-02-28T03:53:47;6.40;77.70
6536;DHT22;34330;52.08032700;5.40923460;2023-02-28T03:56:20;6.40;78.00
6536;DHT22;34330;52.08032700;5.40923460;2023-02-28T03:58:51;6.40;77.90
6536;DHT22;34330;52.08032700;5.40923460;2023-02-28T04:01:24;6.30;77.90
6536;DHT22;34330;52.08032700;5.40923460;2023-02-28T04:03:55;6.30;78.00
6536;DHT22;34330;52.08032700;5.40923460;2023-02-28T04:06:23;6.30;78.00
6536;DHT22;34330;52.08032700;5.40923460;2023-02-28T04:08:53;6.30;78.30
6536;DHT22;34330;52.08032700;5.40923460;2023-02-28T04:11:23;6.30;78.20
6536;DHT22;34330;52.08032700;5.40923460;2023-02-28T04:13:52;6.30;78.30
6536;DHT22;34330;52.08032700;5.40923460;2023-02-28T04:16:20;6.20;78.10
6536;DHT22;34330;52.08032700;5.40923460;2023-02-28T04:19:01;6.20;78.10
6536;DHT22;34330;52.08032700;5.40923460;2023-02-28T04:21:34;6.20;78.00
6536;DHT22;34330;52.08032700;5.40923460;2023-02-28T04:24:04;6.20;77.90
6536;DHT22;34330;52.08032700;5.40923460;2023-02-28T04:26:33;6.10;76.80
6536;DHT22;34330;52.08032700;5.40923460;2023-02-28T04:29:04;6.20;76.20
6536;DHT22;34330;52.08032700;5.40923460;2023-02-28T04:31:32;6.10;75.60
6536;DHT22;34330;52.08032700;5.40923460;2023-02-28T04:34:00;6.10;75.60
6536;DHT22;34330;52.08032700;5.40923460;2023-02-28T04:36:28;6.10;75.30
6536;DHT22;34330;52.08032700;5.40923460;2023-02-28T04:38:56;6.00;75.20
6536;DHT22;34330;52.08032700;5.40923460;2023-02-28T04:41:26;6.00;75.00
6536;DHT22;34330;52.08032700;5.40923460;2023-02-28T04:43:58;6.00;74.90
6536;DHT22;34330;52.08032700;5.40923460;2023-02-28T04:46:26;6.00;74.80
6536;DHT22;34330;52.08032700;5.40923460;2023-02-28T04:48:54;5.90;74.60
6536;DHT22;34330;52.08032700;5.40923460;2023-02-28T04:51:22;5.90;74.70
6536;DHT22;34330;52.08032700;5.40923460;2023-02-28T04:53:50;5.90;74.60
6536;DHT22;34330;52.08032700;5.40923460;2023-02-28T04:56:18;5.90;74.60
6536;DHT22;34330;52.08032700;5.40923460;2023-02-28T04:58:48;5.80;74.70
6536;DHT22;34330;52.08032700;5.40923460;2023-02-28T05:01:22;6.90;76.10
6536;DHT22;34330;52.08032700;5.40923460;2023-02-28T05:03:52;5.80;75.40
6536;DHT22;34330;52.08032700;5.40923460;2023-02-28T05:06:21;5.80;75.50
6536;DHT22;34330;52.08032700;5.40923460;2023-02-28T05:08:50;5.80;75.60
6536;DHT22;34330;52.08032700;5.40923460;2023-02-28T05:11:20;5.80;75.70
6536;DHT22;34330;52.08032700;5.40923460;2023-02-28T05:13:50;5.70;75.90
6536;DHT22;34330;52.08032700;5.40923460;2023-02-28T05:16:18;5.70;76.00
6536;DHT22;34330;52.08032700;5.40923460;2023-02-28T05:18:47;5.70;76.20
6536;DHT22;34330;52.08032700;5.40923460;2023-02-28T05:21:27;6.30;76.80
6536;DHT22;34330;52.08032700;5.40923460;2023-02-28T05:23:58;5.70;76.70
6536;DHT22;34330;52.08032700;5.40923460;2023-02-28T05:26:27;5.60;76.60
6536;DHT22;34330;52.08032700;5.40923460;2023-02-28T05:28:56;5.70;76.80
6536;DHT22;34330;52.08032700;5.40923460;2023-02-28T05:31:24;5.60;76.80
6536;DHT22;34330;52.08032700;5.40923460;2023-02-28T05:33:53;5.60;76.60
6536;DHT22;34330;52.08032700;5.40923460;2023-02-28T05:36:21;5.60;76.70
6536;DHT22;34330;52.08032700;5.40923460;2023-02-28T05:38:49;5.60;76.90
6536;DHT22;34330;52.08032700;5.40923460;2023-02-28T05:41:19;5.60;77.10
6536;DHT22;34330;52.08032700;5.40923460;2023-02-28T05:43:47;5.60;77.10
6536;DHT22;34330;52.08032700;5.40923460;2023-02-28T05:46:16;5.60;77.20
6536;DHT22;34330;52.08032700;5.40923460;2023-02-28T05:48:47;5.60;77.20
6536;DHT22;34330;52.08032700;5.40923460;2023-02-28T05:51:16;5.60;77.60
6536;DHT22;34330;52.08032700;5.40923460;2023-02-28T05:53:44;5.60;77.70
6536;DHT22;34330;52.08032700;5.40923460;2023-02-28T05:56:13;5.60;77.80
6536;DHT22;34330;52.08032700;5.40923460;2023-02-28T05:58:41;5.70;77.90
6536;DHT22;34330;52.08032700;5.40923460;2023-02-28T06:01:32;5.70;77.70
6536;DHT22;34330;52.08032700;5.40923460;2023-02-28T06:04:01;5.70;78.50
6536;DHT22;34330;52.08032700;5.40923460;2023-02-28T06:06:29;5.70;78.20
6536;DHT22;34330;52.08032700;5.40923460;2023-02-28T06:08:57;5.70;78.00
6536;DHT22;34330;52.08032700;5.40923460;2023-02-28T06:11:25;5.70;78.20
6536;DHT22;34330;52.08032700;5.40923460;2023-02-28T06:13:55;5.70;78.30
6536;DHT22;34330;52.08032700;5.40923460;2023-02-28T06:16:23;5.70;78.40
6536;DHT22;34330;52.08032700;5.40923460;2023-02-28T06:18:53;5.70;78.40
6536;DHT22;34330;52.08032700;5.40923460;2023-02-28T06:21:22;5.70;78.50
6536;DHT22;34330;52.08032700;5.40923460;2023-02-28T06:23:50;5.60;78.40
6536;DHT22;34330;52.08032700;5.40923460;2023-02-28T06:26:19;5.60;78.80
6536;DHT22;34330;52.08032700;5.40923460;2023-02-28T06:28:47;5.60;78.80
6536;DHT22;34330;52.08032700;5.40923460;2023-02-28T06:31:16;5.60;78.80
6536;DHT22;34330;52.08032700;5.40923460;2023-02-28T06:33:45;5.60;79.10
6536;DHT22;34330;52.08032700;5.40923460;2023-02-28T06:36:16;5.90;79.30
6536;DHT22;34330;52.08032700;5.40923460;2023-02-28T06:38:44;5.60;79.30
6536;DHT22;34330;52.08032700;5.40923460;2023-02-28T06:41:12;5.50;79.20
6536;DHT22;34330;52.08032700;5.40923460;2023-02-28T06:43:41;5.50;79.00
6536;DHT22;34330;52.08032700;5.40923460;2023-02-28T06:46:12;7.90;81.50
6536;DHT22;34330;52.08032700;5.40923460;2023-02-28T06:48:42;5.50;79.60
6536;DHT22;34330;52.08032700;5.40923460;2023-02-28T06:51:12;5.50;79.60
6536;DHT22;34330;52.08032700;5.40923460;2023-02-28T06:53:42;5.50;79.80
6536;DHT22;34330;52.08032700;5.40923460;2023-02-28T06:56:12;5.50;79.80
6536;DHT22;34330;52.08032700;5.40923460;2023-02-28T06:58:40;5.50;79.80
6536;DHT22;34330;52.08032700;5.40923460;2023-02-28T07:01:09;5.50;80.00
6536;DHT22;34330;52.08032700;5.40923460;2023-02-28T07:03:37;5.50;80.10
6536;DHT22;34330;52.08032700;5.40923460;2023-02-28T07:06:06;5.50;80.20
6536;DHT22;34330;52.08032700;5.40923460;2023-02-28T07:08:34;5.50;80.30
6536;DHT22;34330;52.08032700;5.40923460;2023-02-28T07:11:04;5.50;80.30
6536;DHT22;34330;52.08032700;5.40923460;2023-02-28T07:13:32;5.60;80.10
6536;DHT22;34330;52.08032700;5.40923460;2023-02-28T07:16:01;5.60;80.30
6536;DHT22;34330;52.08032700;5.40923460;2023-02-28T07:18:29;5.60;80.50
6536;DHT22;34330;52.08032700;5.40923460;2023-02-28T07:20:58;5.60;80.40
6536;DHT22;34330;52.08032700;5.40923460;2023-02-28T07:23:26;5.60;80.30
6536;DHT22;34330;52.08032700;5.40923460;2023-02-28T07:25:54;5.60;80.40
6536;DHT22;34330;52.08032700;5.40923460;2023-02-28T07:28:23;7.70;82.30
6536;DHT22;34330;52.08032700;5.40923460;2023-02-28T07:30:51;5.70;80.00
6536;DHT22;34330;52.08032700;5.40923460;2023-02-28T07:33:19;5.60;80.60
6536;DHT22;34330;52.08032700;5.40923460;2023-02-28T07:35:47;5.70;80.80
6536;DHT22;34330;52.08032700;5.40923460;2023-02-28T07:38:15;5.70;80.80
6536;DHT22;34330;52.08032700;5.40923460;2023-02-28T07:40:43;5.70;80.90
6536;DHT22;34330;52.08032700;5.40923460;2023-02-28T07:43:14;5.70;80.80
6536;DHT22;34330;52.08032700;5.40923460;2023-02-28T07:45:43;5.70;81.60
6536;DHT22;34330;52.08032700;5.40923460;2023-02-28T07:48:11;5.70;81.00
6536;DHT22;34330;52.08032700;5.40923460;2023-02-28T07:50:39;5.70;80.90
6536;DHT22;34330;52.08032700;5.40923460;2023-02-28T07:53:07;5.80;81.20
6536;DHT22;34330;52.08032700;5.40923460;2023-02-28T07:55:35;5.80;81.20
6536;DHT22;34330;52.08032700;5.40923460;2023-02-28T07:58:03;5.80;81.30
6536;DHT22;34330;52.08032700;5.40923460;2023-02-28T08:00:31;5.80;81.20
6536;DHT22;34330;52.08032700;5.40923460;2023-02-28T08:03:00;5.80;81.50
6536;DHT22;34330;52.08032700;5.40923460;2023-02-28T08:05:28;5.80;81.10
6536;DHT22;34330;52.08032700;5.40923460;2023-02-28T08:07:56;5.90;81.40
6536;DHT22;34330;52.08032700;5.40923460;2023-02-28T08:10:24;6.00;81.40
6536;DHT22;34330;52.08032700;5.40923460;2023-02-28T08:12:52;5.90;81.40
6536;DHT22;34330;52.08032700;5.40923460;2023-02-28T08:15:20;5.90;81.20
6536;DHT22;34330;52.08032700;5.40923460;2023-02-28T08:17:48;5.90;81.00
6536;DHT22;34330;52.08032700;5.40923460;2023-02-28T08:20:17;6.00;81.10
6536;DHT22;34330;52.08032700;5.40923460;2023-02-28T08:22:45;7.20;82.20
6536;DHT22;34330;52.08032700;5.40923460;2023-02-28T08:25:13;5.90;80.60
6536;DHT22;34330;52.08032700;5.40923460;2023-02-28T08:27:41;6.00;80.40
6536;DHT22;34330;52.08032700;5.40923460;2023-02-28T08:30:11;6.00;80.30
6536;DHT22;34330;52.08032700;5.40923460;2023-02-28T08:32:40;6.00;80.50
6536;DHT22;34330;52.08032700;5.40923460;2023-02-28T08:35:09;6.00;79.90
6536;DHT22;34330;52.08032700;5.40923460;2023-02-28T08:37:38;6.00;79.80
6536;DHT22;34330;52.08032700;5.40923460;2023-02-28T08:40:08;6.10;79.40
6536;DHT22;34330;52.08032700;5.40923460;2023-02-28T08:42:36;6.10;79.30
6536;DHT22;34330;52.08032700;5.40923460;2023-02-28T08:45:06;6.10;78.90
6536;DHT22;34330;52.08032700;5.40923460;2023-02-28T08:47:34;6.20;79.00
6536;DHT22;34330;52.08032700;5.40923460;2023-02-28T08:50:02;6.10;78.50
6536;DHT22;34330;52.08032700;5.40923460;2023-02-28T08:52:33;6.20;78.40
6536;DHT22;34330;52.08032700;5.40923460;2023-02-28T08:55:02;6.30;78.20
6536;DHT22;34330;52.08032700;5.40923460;2023-02-28T08:57:33;6.30;78.00
6536;DHT22;34330;52.08032700;5.40923460;2023-02-28T09:00:02;6.30;77.70
6536;DHT22;34330;52.08032700;5.40923460;2023-02-28T09:02:31;6.40;77.30
6536;DHT22;34330;52.08032700;5.40923460;2023-02-28T09:04:59;6.40;77.00
6536;DHT22;34330;52.08032700;5.40923460;2023-02-28T09:07:27;6.40;76.60
6536;DHT22;34330;52.08032700;5.40923460;2023-02-28T09:09:55;6.50;76.80
6536;DHT22;34330;52.08032700;5.40923460;2023-02-28T09:12:27;6.50;76.00
6536;DHT22;34330;52.08032700;5.40923460;2023-02-28T09:14:55;6.60;75.60
6536;DHT22;34330;52.08032700;5.40923460;2023-02-28T09:17:23;6.60;75.00
6536;DHT22;34330;52.08032700;5.40923460;2023-02-28T09:19:56;6.80;74.60
6536;DHT22;34330;52.08032700;5.40923460;2023-02-28T09:22:24;6.80;74.40
6536;DHT22;34330;52.08032700;5.40923460;2023-02-28T09:24:52;6.90;73.10
6536;DHT22;34330;52.08032700;5.40923460;2023-02-28T09:27:20;7.00;71.10
6536;DHT22;34330;52.08032700;5.40923460;2023-02-28T09:29:49;7.10;69.40
6536;DHT22;34330;52.08032700;5.40923460;2023-02-28T09:32:17;7.20;68.60
6536;DHT22;34330;52.08032700;5.40923460;2023-02-28T09:34:45;7.20;68.20
6536;DHT22;34330;52.08032700;5.40923460;2023-02-28T09:37:13;7.30;67.60
6536;DHT22;34330;52.08032700;5.40923460;2023-02-28T09:39:44;7.30;66.30
6536;DHT22;34330;52.08032700;5.40923460;2023-02-28T09:42:21;7.30;65.40
6536;DHT22;34330;52.08032700;5.40923460;2023-02-28T09:44:51;7.40;64.50
6536;DHT22;34330;52.08032700;5.40923460;2023-02-28T09:47:27;9.30;66.00
6536;DHT22;34330;52.08032700;5.40923460;2023-02-28T09:52:44;7.40;61.90
6536;DHT22;34330;52.08032700;5.40923460;2023-02-28T09:55:22;7.50;62.50
6536;DHT22;34330;52.08032700;5.40923460;2023-02-28T09:57:54;7.50;61.40
6536;DHT22;34330;52.08032700;5.40923460;2023-02-28T10:00:31;7.50;61.80
6536;DHT22;34330;52.08032700;5.40923460;2023-02-28T10:06:08;7.70;60.90
6536;DHT22;34330;52.08032700;5.40923460;2023-02-28T10:08:43;7.70;60.30
6536;DHT22;34330;52.08032700;5.40923460;2023-02-28T10:11:16;7.80;59.60
6536;DHT22;34330;52.08032700;5.40923460;2023-02-28T10:13:52;7.90;60.30
6536;DHT22;34330;52.08032700;5.40923460;2023-02-28T10:16:27;7.90;59.50
6536;DHT22;34330;52.08032700;5.40923460;2023-02-28T10:18:58;8.10;60.00
6536;DHT22;34330;52.08032700;5.40923460;2023-02-28T10:21:34;8.10;59.20
6536;DHT22;34330;52.08032700;5.40923460;2023-02-28T10:24:05;8.30;58.60
6536;DHT22;34330;52.08032700;5.40923460;2023-02-28T10:26:39;8.40;58.60
6536;DHT22;34330;52.08032700;5.40923460;2023-02-28T10:29:11;8.40;58.60
6536;DHT22;34330;52.08032700;5.40923460;2023-02-28T10:31:41;8.50;58.00
6536;DHT22;34330;52.08032700;5.40923460;2023-02-28T10:34:12;8.60;57.00
6536;DHT22;34330;52.08032700;5.40923460;2023-02-28T10:36:41;8.70;57.20
6536;DHT22;34330;52.08032700;5.40923460;2023-02-28T10:39:40;8.70;57.20
6536;DHT22;34330;52.08032700;5.40923460;2023-02-28T10:42:23;8.80;56.30
6536;DHT22;34330;52.08032700;5.40923460;2023-02-28T10:45:06;8.80;55.00
6536;DHT22;34330;52.08032700;5.40923460;2023-02-28T10:47:40;8.80;55.10
6536;DHT22;34330;52.08032700;5.40923460;2023-02-28T10:50:28;8.90;55.50
6536;DHT22;34330;52.08032700;5.40923460;2023-02-28T10:53:07;8.90;55.40
6536;DHT22;34330;52.08032700;5.40923460;2023-02-28T10:55:36;8.90;54.60
6536;DHT22;34330;52.08032700;5.40923460;2023-02-28T10:58:21;8.90;55.30
6536;DHT22;34330;52.08032700;5.40923460;2023-02-28T11:00:51;9.00;54.40
6536;DHT22;34330;52.08032700;5.40923460;2023-02-28T11:03:29;9.00;55.30
6536;DHT22;34330;52.08032700;5.40923460;2023-02-28T11:05:57;9.00;54.00
6536;DHT22;34330;52.08032700;5.40923460;2023-02-28T11:08:26;9.00;54.60
6536;DHT22;34330;52.08032700;5.40923460;2023-02-28T11:10:57;9.00;54.40
6536;DHT22;34330;52.08032700;5.40923460;2023-02-28T11:13:28;9.10;53.60
6536;DHT22;34330;52.08032700;5.40923460;2023-02-28T11:15:59;9.10;53.30
6536;DHT22;34330;52.08032700;5.40923460;2023-02-28T11:18:31;9.10;53.10
6536;DHT22;34330;52.08032700;5.40923460;2023-02-28T11:21:02;9.10;52.60
6536;DHT22;34330;52.08032700;5.40923460;2023-02-28T11:23:32;9.10;53.30
6536;DHT22;34330;52.08032700;5.40923460;2023-02-28T11:26:07;9.10;51.40
6536;DHT22;34330;52.08032700;5.40923460;2023-02-28T11:28:39;9.20;51.60
6536;DHT22;34330;52.08032700;5.40923460;2023-02-28T11:31:18;9.20;51.70
6536;DHT22;34330;52.08032700;5.40923460;2023-02-28T11:33:52;9.20;51.80
6536;DHT22;34330;52.08032700;5.40923460;2023-02-28T11:36:22;9.30;52.70
6536;DHT22;34330;52.08032700;5.40923460;2023-02-28T11:38:53;9.30;52.70
6536;DHT22;34330;52.08032700;5.40923460;2023-02-28T11:41:42;9.40;52.60
6536;DHT22;34330;52.08032700;5.40923460;2023-02-28T11:44:28;9.40;51.40
6536;DHT22;34330;52.08032700;5.40923460;2023-02-28T11:47:02;9.40;51.40
6536;DHT22;34330;52.08032700;5.40923460;2023-02-28T11:49:40;9.60;52.00
6536;DHT22;34330;52.08032700;5.40923460;2023-02-28T11:52:20;9.50;50.90
6536;DHT22;34330;52.08032700;5.40923460;2023-02-28T11:55:00;9.50;51.10
6536;DHT22;34330;52.08032700;5.40923460;2023-02-28T11:57:38;9.60;51.10
6536;DHT22;34330;52.08032700;5.40923460;2023-02-28T12:00:25;9.60;50.70
6536;DHT22;34330;52.08032700;5.40923460;2023-02-28T12:03:03;9.60;50.50
6536;DHT22;34330;52.08032700;5.40923460;2023-02-28T12:05:36;9.70;49.50
6536;DHT22;34330;52.08032700;5.40923460;2023-02-28T12:08:22;9.70;50.20
6536;DHT22;34330;52.08032700;5.40923460;2023-02-28T12:11:03;9.70;50.20
6536;DHT22;34330;52.08032700;5.40923460;2023-02-28T12:13:42;9.80;50.00
6536;DHT22;34330;52.08032700;5.40923460;2023-02-28T12:16:30;9.80;50.70
6536;DHT22;34330;52.08032700;5.40923460;2023-02-28T12:19:11;9.90;48.90
6536;DHT22;34330;52.08032700;5.40923460;2023-02-28T12:21:52;9.80;49.20
6536;DHT22;34330;52.08032700;5.40923460;2023-02-28T12:24:41;9.90;49.80
6536;DHT22;34330;52.08032700;5.40923460;2023-02-28T12:27:14;9.90;49.50
6536;DHT22;34330;52.08032700;5.40923460;2023-02-28T12:29:49;10.00;49.30
6536;DHT22;34330;52.08032700;5.40923460;2023-02-28T12:32:21;9.90;49.40
6536;DHT22;34330;52.08032700;5.40923460;2023-02-28T12:34:56;10.00;48.40
6536;DHT22;34330;52.08032700;5.40923460;2023-02-28T12:37:31;10.00;48.40
6536;DHT22;34330;52.08032700;5.40923460;2023-02-28T12:40:01;10.00;48.70
6536;DHT22;34330;52.08032700;5.40923460;2023-02-28T12:42:36;9.60;48.90
6536;DHT22;34330;52.08032700;5.40923460;2023-02-28T12:45:10;10.00;48.50
6536;DHT22;34330;52.08032700;5.40923460;2023-02-28T12:47:42;10.10;46.80
6536;DHT22;34330;52.08032700;5.40923460;2023-02-28T12:50:13;10.10;47.40
6536;DHT22;34330;52.08032700;5.40923460;2023-02-28T12:52:51;10.10;46.60
6536;DHT22;34330;52.08032700;5.40923460;2023-02-28T12:55:23;10.10;46.60
6536;DHT22;34330;52.08032700;5.40923460;2023-02-28T12:57:59;10.10;47.10
6536;DHT22;34330;52.08032700;5.40923460;2023-02-28T13:00:35;10.10;48.10
6536;DHT22;34330;52.08032700;5.40923460;2023-02-28T13:03:32;12.20;48.70
6536;DHT22;34330;52.08032700;5.40923460;2023-02-28T13:06:31;10.10;46.70
6536;DHT22;34330;52.08032700;5.40923460;2023-02-28T13:09:09;10.20;46.30
6536;DHT22;34330;52.08032700;5.40923460;2023-02-28T13:11:41;10.20;46.50
6536;DHT22;34330;52.08032700;5.40923460;2023-02-28T13:14:24;10.50;46.90
6536;DHT22;34330;52.08032700;5.40923460;2023-02-28T13:16:58;10.30;46.10
6536;DHT22;34330;52.08032700;5.40923460;2023-02-28T13:19:28;10.30;46.40
6536;DHT22;34330;52.08032700;5.40923460;2023-02-28T13:21:58;10.30;46.80
6536;DHT22;34330;52.08032700;5.40923460;2023-02-28T13:24:46;10.30;47.20
6536;DHT22;34330;52.08032700;5.40923460;2023-02-28T13:27:33;10.40;45.50
6536;DHT22;34330;52.08032700;5.40923460;2023-02-28T13:30:49;10.40;45.80
6536;DHT22;34330;52.08032700;5.40923460;2023-02-28T13:33:25;10.40;45.70
6536;DHT22;34330;52.08032700;5.40923460;2023-02-28T13:38:59;11.80;45.70
6536;DHT22;34330;52.08032700;5.40923460;2023-02-28T13:41:47;10.50;46.10
6536;DHT22;34330;52.08032700;5.40923460;2023-02-28T13:44:19;10.50;45.10
6536;DHT22;34330;52.08032700;5.40923460;2023-02-28T13:47:25;10.60;45.40
6536;DHT22;34330;52.08032700;5.40923460;2023-02-28T13:50:15;10.60;44.80
6536;DHT22;34330;52.08032700;5.40923460;2023-02-28T13:52:51;10.70;44.90
6536;DHT22;34330;52.08032700;5.40923460;2023-02-28T13:55:26;10.80;45.70
6536;DHT22;34330;52.08032700;5.40923460;2023-02-28T13:58:12;10.80;46.00
6536;DHT22;34330;52.08032700;5.40923460;2023-02-28T14:01:02;11.00;45.30
6536;DHT22;34330;52.08032700;5.40923460;2023-02-28T14:03:54;11.00;44.90
6536;DHT22;34330;52.08032700;5.40923460;2023-02-28T14:06:28;11.10;44.40
6536;DHT22;34330;52.08032700;5.40923460;2023-02-28T14:09:00;11.20;44.70
6536;DHT22;34330;52.08032700;5.40923460;2023-02-28T14:11:34;11.20;44.60
6536;DHT22;34330;52.08032700;5.40923460;2023-02-28T14:14:05;11.30;44.70
6536;DHT22;34330;52.08032700;5.40923460;2023-02-28T14:16:39;11.40;42.50
6536;DHT22;34330;52.08032700;5.40923460;2023-02-28T14:19:14;11.40;43.10
6536;DHT22;34330;52.08032700;5.40923460;2023-02-28T14:21:58;11.50;43.00
6536;DHT22;34330;52.08032700;5.40923460;2023-02-28T14:27:45;11.60;43.80
6536;DHT22;34330;52.08032700;5.40923460;2023-02-28T14:33:22;11.90;43.10
6536;DHT22;34330;52.08032700;5.40923460;2023-02-28T14:36:03;12.00;43.70